Time;durP1;ratioP1;P1;durP2;ratioP2;P2;SDS_P1;SDS_P2;PMS_P1;PMS_P2;Temp;Humidity;BMP_temperature;BMP_pressure;BME280_temperature;BME280_humidity;BME280_pressure;Samples;Min_cycle;Max_cycle;Signal;HPM_P1;HPM_P2
2021/12/30 00:01:47;;;;;;;40.88;6.03;;;7.90;99.90;;;;;;5070889;28;20028;-50
2021/12/30 00:04:13;;;;;;;43.42;6.65;;;7.90;99.90;;;;;;5071317;28;20102;-48
2021/12/30 00:06:40;;;;;;;37.05;4.63;;;7.80;99.90;;;;;;5075622;28;20425;-48
2021/12/30 00:09:11;;;;;;;39.10;6.72;;;8.00;99.90;;;;;;5069335;28;20572;-46
2021/12/30 00:11:38;;;;;;;38.42;6.05;;;8.00;99.90;;;;;;5063423;28;20086;-48
2021/12/30 00:14:04;;;;;;;45.95;6.32;;;7.80;99.90;;;;;;5071899;28;20052;-47
2021/12/30 00:16:30;;;;;;;40.35;5.90;;;7.90;99.90;;;;;;5073165;28;20131;-47
2021/12/30 00:18:56;;;;;;;43.78;8.30;;;8.00;99.90;;;;;;5072834;28;21257;-52
2021/12/30 00:21:23;;;;;;;42.08;6.25;;;8.00;99.90;;;;;;5074841;28;20044;-49
2021/12/30 00:23:49;;;;;;;44.30;6.97;;;;;;;;;;5073753;28;20044;-50
2021/12/30 00:26:15;;;;;;;51.20;7.38;;;7.90;99.90;;;;;;5074465;28;20068;-48
2021/12/30 00:28:41;;;;;;;54.40;7.28;;;;;;;;;;5069031;28;20493;-48
2021/12/30 00:31:07;;;;;;;54.35;7.35;;;7.90;99.90;;;;;;5079355;28;20033;-47
2021/12/30 00:33:34;;;;;;;55.22;7.93;;;;;;;;;;5076363;28;20036;-48
2021/12/30 00:36:08;;;;;;;42.10;6.93;;;7.90;99.90;;;;;;5067165;28;20059;-48
2021/12/30 00:38:39;;;;;;;52.97;8.10;;;7.90;99.90;;;;;;5076309;28;20048;-49
2021/12/30 00:41:04;;;;;;;51.28;9.13;;;7.90;99.90;;;;;;5069251;28;20488;-51
2021/12/30 00:43:30;;;;;;;65.18;8.57;;;7.90;99.90;;;;;;5076763;28;20116;-49
2021/12/30 00:45:56;;;;;;;53.95;7.88;;;7.60;99.90;;;;;;5076797;28;20051;-52
2021/12/30 00:48:22;;;;;;;60.92;8.45;;;7.80;99.90;;;;;;5069017;28;20039;-47
2021/12/30 00:50:48;;;;;;;54.65;9.18;;;;;;;;;;5077682;28;20161;-48
2021/12/30 00:53:16;;;;;;;54.60;8.85;;;7.70;99.90;;;;;;5077818;28;20036;-48
2021/12/30 00:55:42;;;;;;;56.75;7.45;;;7.80;99.90;;;;;;5071815;28;20063;-48
2021/12/30 00:58:08;;;;;;;52.08;7.63;;;7.70;99.90;;;;;;5069451;28;20040;-47
2021/12/30 01:00:37;;;;;;;61.45;7.60;;;7.80;99.90;;;;;;5073069;28;20036;-47
2021/12/30 01:03:02;;;;;;;55.25;7.90;;;7.70;99.90;;;;;;5071441;28;20071;-49
2021/12/30 01:05:28;;;;;;;53.03;7.72;;;7.80;99.90;;;;;;5063071;28;20467;-52
2021/12/30 01:07:54;;;;;;;52.63;8.55;;;7.60;99.90;;;;;;5074075;28;20410;-47
2021/12/30 01:10:23;;;;;;;61.83;7.30;;;8.70;99.90;;;;;;5065926;28;20173;-49
2021/12/30 01:12:51;;;;;;;53.42;8.93;;;7.70;99.90;;;;;;5067922;28;20083;-49
2021/12/30 01:15:20;;;;;;;46.10;7.65;;;7.50;99.90;;;;;;5071711;28;20067;-49
2021/12/30 01:17:59;;;;;;;45.22;6.70;;;7.60;99.90;;;;;;5068657;28;20119;-47
2021/12/30 01:20:27;;;;;;;45.70;8.13;;;7.60;99.90;;;;;;5074892;28;20036;-52
2021/12/30 01:22:53;;;;;;;48.28;8.15;;;7.70;99.90;;;;;;5067781;28;20032;-50
2021/12/30 01:25:19;;;;;;;53.38;8.60;;;7.60;99.90;;;;;;5070899;28;20399;-50
2021/12/30 01:27:45;;;;;;;45.60;6.75;;;9.00;99.90;;;;;;5073341;28;20047;-47
2021/12/30 01:30:17;;;;;;;52.60;8.30;;;7.40;99.90;;;;;;5069663;28;20501;-48
2021/12/30 01:32:43;;;;;;;54.65;8.43;;;7.30;99.90;;;;;;5071539;28;20055;-51
2021/12/30 01:35:12;;;;;;;48.60;7.15;;;7.60;99.90;;;;;;5082235;28;20032;-48
2021/12/30 01:37:38;;;;;;;57.30;8.80;;;;;;;;;;5072646;28;20094;-48
2021/12/30 01:40:12;;;;;;;49.17;6.28;;;7.30;99.90;;;;;;5073257;28;20111;-51
2021/12/30 01:42:37;;;;;;;55.05;7.00;;;7.30;99.90;;;;;;5072934;28;20086;-47
2021/12/30 01:45:06;;;;;;;46.28;7.60;;;7.40;99.90;;;;;;5066421;28;20043;-50
2021/12/30 01:47:32;;;;;;;49.50;6.72;;;7.30;99.90;;;;;;5063657;28;20036;-47
2021/12/30 01:49:57;;;;;;;40.92;6.80;;;7.30;99.90;;;;;;5073031;28;20388;-51
2021/12/30 01:52:23;;;;;;;49.17;7.78;;;;;;;;;;5064542;28;20459;-51
2021/12/30 01:54:49;;;;;;;55.45;8.65;;;7.30;99.90;;;;;;5073390;28;20039;-47
2021/12/30 01:57:15;;;;;;;56.13;7.93;;;7.30;99.90;;;;;;5074997;28;20051;-51
2021/12/30 01:59:40;;;;;;;50.53;7.20;;;7.20;99.90;;;;;;5065512;28;20032;-49
2021/12/30 02:02:06;;;;;;;47.05;8.60;;;7.20;99.90;;;;;;5062305;28;20048;-47
2021/12/30 02:04:33;;;;;;;50.28;7.22;;;;;;;;;;5074465;28;20044;-48
2021/12/30 02:06:59;;;;;;;56.50;7.28;;;7.10;99.90;;;;;;5074842;28;20083;-49
2021/12/30 02:09:29;;;;;;;44.78;7.55;;;7.20;99.90;;;;;;5072783;28;20051;-48
2021/12/30 02:11:55;;;;;;;55.00;7.72;;;7.20;99.90;;;;;;5073261;28;20048;-48
2021/12/30 02:14:21;;;;;;;52.60;7.10;;;;;;;;;;5080756;28;20508;-47
2021/12/30 02:16:49;;;;;;;44.13;6.32;;;7.20;99.90;;;;;;5070818;28;20528;-48
2021/12/30 02:19:14;;;;;;;44.40;7.15;;;7.20;99.90;;;;;;5070467;28;20516;-48
2021/12/30 02:21:40;;;;;;;48.30;7.13;;;7.30;99.90;;;;;;5071650;28;20047;-50
2021/12/30 02:24:06;;;;;;;49.45;6.82;;;7.10;99.90;;;;;;5079772;28;20032;-49
2021/12/30 02:26:34;;;;;;;50.80;8.10;;;7.70;99.90;;;;;;5069278;28;20028;-48
2021/12/30 02:28:59;;;;;;;50.40;7.63;;;7.00;99.90;;;;;;5068938;28;20397;-47
2021/12/30 02:31:28;;;;;;;53.65;7.03;;;7.10;99.90;;;;;;5073136;28;20043;-50
2021/12/30 02:33:55;;;;;;;51.75;8.43;;;7.10;99.90;;;;;;5071164;28;20508;-48
2021/12/30 02:36:32;;;;;;;48.63;6.97;;;7.10;99.90;;;;;;5072770;28;20501;-49
2021/12/30 02:38:59;;;;;;;48.70;6.68;;;7.10;99.90;;;;;;5060473;28;20037;-47
2021/12/30 02:41:32;;;;;;;56.75;8.15;;;6.80;99.90;;;;;;5073872;28;20044;-48
2021/12/30 02:43:58;;;;;;;66.13;8.25;;;7.10;99.90;;;;;;5076971;28;20036;-47
2021/12/30 02:46:29;;;;;;;53.13;6.65;;;7.00;99.90;;;;;;5071037;28;20085;-52
2021/12/30 02:48:56;;;;;;;63.58;8.07;;;6.90;99.90;;;;;;5071180;28;20314;-49
2021/12/30 02:51:23;;;;;;;50.00;8.77;;;6.90;99.90;;;;;;5070847;28;20071;-47
2021/12/30 02:53:49;;;;;;;63.88;9.25;;;;;;;;;;5059613;28;20501;-48
2021/12/30 02:56:15;;;;;;;71.38;9.95;;;;;;;;;;5075012;28;20051;-52
2021/12/30 02:58:41;;;;;;;51.47;9.20;;;;;;;;;;5068284;28;20067;-47
2021/12/30 03:01:12;;;;;;;58.45;9.43;;;7.10;99.90;;;;;;5080022;28;20036;-48
2021/12/30 03:03:39;;;;;;;65.95;10.60;;;7.40;99.90;;;;;;5072173;28;20044;-49
2021/12/30 03:06:07;;;;;;;63.88;9.82;;;7.10;99.90;;;;;;5071604;28;20051;-49
2021/12/30 03:08:35;;;;;;;57.83;9.40;;;7.30;99.90;;;;;;5072995;28;20870;-50
2021/12/30 03:11:02;;;;;;;55.15;11.02;;;7.30;99.90;;;;;;5072293;28;20128;-47
2021/12/30 03:13:32;;;;;;;73.93;12.65;;;7.40;99.90;;;;;;5075685;28;20044;-52
2021/12/30 03:16:02;;;;;;;51.63;9.60;;;7.40;99.90;;;;;;5068838;28;20139;-49
2021/12/30 03:18:29;;;;;;;57.80;10.45;;;7.50;99.90;;;;;;5072792;28;20385;-49
2021/12/30 03:20:55;;;;;;;75.05;12.90;;;;;;;;;;5067130;28;20384;-49
2021/12/30 03:23:21;;;;;;;73.25;12.95;;;7.50;99.90;;;;;;5078006;28;20409;-48
2021/12/30 03:25:47;;;;;;;63.92;13.13;;;7.60;99.90;;;;;;5063108;28;20045;-47
2021/12/30 03:28:12;;;;;;;65.32;12.73;;;7.60;99.90;;;;;;5078981;28;20102;-53
2021/12/30 03:30:38;;;;;;;62.25;11.65;;;;;;;;;;5063594;28;20072;-51
2021/12/30 03:33:05;;;;;;;65.32;13.05;;;7.80;99.90;;;;;;5078719;28;20570;-50
2021/12/30 03:35:31;;;;;;;71.65;13.88;;;7.80;99.90;;;;;;5074204;28;20045;-49
2021/12/30 03:37:57;;;;;;;71.13;14.73;;;7.80;99.90;;;;;;5077338;28;20097;-49
2021/12/30 03:40:25;;;;;;;72.05;14.35;;;7.90;99.90;;;;;;5078211;28;20044;-49
2021/12/30 03:42:51;;;;;;;74.65;14.60;;;7.80;99.90;;;;;;5075046;28;20044;-48
2021/12/30 03:45:16;;;;;;;78.03;14.85;;;8.00;99.90;;;;;;5076290;28;20102;-49
2021/12/30 03:47:47;;;;;;;65.70;14.07;;;7.90;99.90;;;;;;5074986;28;20033;-49
2021/12/30 03:50:19;;;;;;;76.70;14.13;;;7.90;99.90;;;;;;5073562;28;20044;-47
2021/12/30 03:52:54;;;;;;;82.07;16.23;;;7.90;99.90;;;;;;5073764;28;20033;-47
2021/12/30 03:55:22;;;;;;;66.13;16.08;;;8.00;99.90;;;;;;5073730;28;20032;-49
2021/12/30 03:57:49;;;;;;;70.88;13.73;;;8.10;99.90;;;;;;5068812;28;20040;-48
2021/12/30 04:00:18;;;;;;;66.03;13.57;;;8.00;99.90;;;;;;5085265;28;20066;-47
2021/12/30 04:02:44;;;;;;;59.30;12.80;;;8.10;99.90;;;;;;5072216;28;20130;-47
2021/12/30 04:05:11;;;;;;;78.13;13.82;;;8.10;99.90;;;;;;5083965;28;20513;-47
2021/12/30 04:07:39;;;;;;;83.60;14.43;;;8.20;99.90;;;;;;5069492;28;20138;-48
2021/12/30 04:10:07;;;;;;;66.40;13.25;;;8.20;99.90;;;;;;5072466;28;20043;-48
2021/12/30 04:12:33;;;;;;;68.90;12.75;;;8.10;99.90;;;;;;5078971;28;20126;-47
2021/12/30 04:15:02;;;;;;;73.40;14.63;;;8.10;99.90;;;;;;5074994;28;20204;-50
2021/12/30 04:17:28;;;;;;;59.83;13.50;;;8.00;99.90;;;;;;5074280;28;20078;-49
2021/12/30 04:19:54;;;;;;;78.97;14.98;;;8.10;99.90;;;;;;5070814;28;20044;-49
2021/12/30 04:22:19;;;;;;;85.05;14.45;;;8.20;99.90;;;;;;5075091;28;20036;-48
2021/12/30 04:24:47;;;;;;;93.15;15.23;;;8.20;99.90;;;;;;5082073;28;20036;-47
2021/12/30 04:27:13;;;;;;;75.30;14.75;;;8.20;99.90;;;;;;5073006;28;20074;-51
2021/12/30 04:29:39;;;;;;;73.68;14.52;;;8.20;99.90;;;;;;5076484;28;20036;-47
2021/12/30 04:32:05;;;;;;;82.88;15.82;;;7.60;99.90;;;;;;5080257;28;20046;-47
2021/12/30 04:34:31;;;;;;;74.40;15.40;;;8.30;99.90;;;;;;5067559;28;20075;-47
2021/12/30 04:36:58;;;;;;;72.68;14.20;;;8.40;99.90;;;;;;5076639;28;20136;-49
2021/12/30 04:39:30;;;;;;;85.68;15.80;;;8.60;99.90;;;;;;5072544;28;20044;-50
2021/12/30 04:41:58;;;;;;;;;;;8.40;99.90;;;;;;5074116;28;20047;-51
2021/12/30 04:44:25;;;;;;;84.72;16.70;;;8.70;99.90;;;;;;5071059;28;19924;-49
2021/12/30 04:46:51;;;;;;;83.10;18.90;;;8.80;99.90;;;;;;5080248;28;20113;-49
2021/12/30 04:49:16;;;;;;;74.57;16.98;;;8.90;99.90;;;;;;5073586;28;20043;-50
2021/12/30 04:51:42;;;;;;;97.00;19.25;;;10.00;99.90;;;;;;5077751;28;20029;-51
2021/12/30 04:54:10;;;;;;;77.60;17.40;;;9.00;99.90;;;;;;5081979;28;20935;-51
2021/12/30 04:56:36;;;;;;;83.20;18.20;;;10.20;99.90;;;;;;5064681;28;20028;-50
2021/12/30 04:59:02;;;;;;;98.38;21.48;;;9.80;99.90;;;;;;5079214;28;20106;-51
2021/12/30 05:01:29;;;;;;;97.53;21.45;;;9.20;99.90;;;;;;5075486;28;20036;-52
2021/12/30 05:03:55;;;;;;;90.55;22.70;;;9.00;99.90;;;;;;5083618;28;20591;-51
2021/12/30 05:06:21;;;;;;;103.25;22.27;;;10.80;99.90;;;;;;5062564;28;20125;-50
2021/12/30 05:08:47;;;;;;;107.68;24.30;;;9.40;99.90;;;;;;5075214;28;20143;-52
2021/12/30 05:11:14;;;;;;;104.65;26.35;;;9.30;99.90;;;;;;5075028;28;20064;-51
2021/12/30 05:13:40;;;;;;;102.00;24.38;;;9.40;99.90;;;;;;5074165;28;20036;-47
2021/12/30 05:16:05;;;;;;;103.70;25.67;;;10.50;99.90;;;;;;5065026;28;20576;-50
2021/12/30 05:18:33;;;;;;;103.32;25.88;;;9.40;99.90;;;;;;5066292;28;20070;-52
2021/12/30 05:21:00;;;;;;;111.30;27.92;;;10.30;99.90;;;;;;5071766;28;20053;-51
2021/12/30 05:23:27;;;;;;;120.55;29.75;;;10.80;99.90;;;;;;5074164;28;20488;-50
2021/12/30 05:25:53;;;;;;;116.80;28.85;;;9.60;99.90;;;;;;5073770;28;20043;-52
2021/12/30 05:28:19;;;;;;;107.47;27.27;;;9.70;99.90;;;;;;5071386;28;20048;-53
2021/12/30 05:30:45;;;;;;;115.63;27.60;;;9.80;99.90;;;;;;5073294;28;20144;-51
2021/12/30 05:33:10;;;;;;;99.90;26.20;;;9.50;99.90;;;;;;5077899;28;20511;-52
2021/12/30 05:35:36;;;;;;;80.68;23.70;;;9.70;99.90;;;;;;5071097;28;20031;-49
2021/12/30 05:38:03;;;;;;;78.88;21.85;;;9.70;99.90;;;;;;5066999;28;20101;-51
2021/12/30 05:40:29;;;;;;;61.63;20.00;;;9.90;99.90;;;;;;5077262;28;20048;-49
2021/12/30 05:42:55;;;;;;;72.07;20.77;;;10.30;99.90;;;;;;5074309;28;20056;-49
2021/12/30 05:45:21;;;;;;;59.20;21.02;;;9.70;99.90;;;;;;5071246;28;20057;-47
2021/12/30 05:47:50;;;;;;;56.97;17.33;;;10.00;99.90;;;;;;5073109;28;20048;-48
2021/12/30 05:50:23;;;;;;;64.55;20.33;;;9.90;99.90;;;;;;5066509;28;20048;-47
2021/12/30 05:52:49;;;;;;;55.75;18.02;;;10.90;99.90;;;;;;5073214;28;20059;-47
2021/12/30 05:55:15;;;;;;;58.28;18.35;;;9.90;99.90;;;;;;5074886;28;20049;-47
2021/12/30 05:57:42;;;;;;;59.25;18.05;;;12.10;99.90;;;;;;5064027;28;20538;-45
2021/12/30 06:00:12;;;;;;;52.72;18.27;;;10.00;99.90;;;;;;5074596;28;20103;-46
2021/12/30 06:02:37;;;;;;;54.90;16.48;;;10.10;99.90;;;;;;5077383;28;20043;-52
2021/12/30 06:05:04;;;;;;;52.08;18.17;;;11.00;99.90;;;;;;5069904;28;20036;-45
2021/12/30 06:07:29;;;;;;;61.70;19.00;;;10.00;99.90;;;;;;5082392;28;20758;-46
2021/12/30 06:09:55;;;;;;;65.07;20.50;;;10.60;99.90;;;;;;5070325;28;20051;-46
2021/12/30 06:12:21;;;;;;;70.15;22.40;;;9.90;99.90;;;;;;5077933;28;20052;-46
2021/12/30 06:14:47;;;;;;;66.15;21.45;;;10.60;99.90;;;;;;5074094;28;20055;-44
2021/12/30 06:17:15;;;;;;;69.03;21.60;;;10.10;99.90;;;;;;5072252;28;20072;-46
2021/12/30 06:19:42;;;;;;;75.13;22.17;;;10.10;99.90;;;;;;5069986;28;20044;-46
2021/12/30 06:22:09;;;;;;;79.22;23.67;;;11.20;99.90;;;;;;5069896;28;20039;-44
2021/12/30 06:24:36;;;;;;;99.90;25.10;;;10.60;99.90;;;;;;5075928;28;20037;-46
2021/12/30 06:27:02;;;;;;;81.13;24.33;;;10.20;99.90;;;;;;5070591;28;20044;-45
2021/12/30 06:29:28;;;;;;;113.32;27.38;;;10.20;99.90;;;;;;5072520;28;20048;-47
2021/12/30 06:31:54;;;;;;;103.53;26.45;;;10.30;99.90;;;;;;5068237;28;20052;-47
2021/12/30 06:34:19;;;;;;;108.20;28.15;;;10.20;99.90;;;;;;5078132;28;20059;-45
2021/12/30 06:36:45;;;;;;;102.25;26.10;;;11.20;99.90;;;;;;5074000;28;20101;-46
2021/12/30 06:39:13;;;;;;;112.63;26.65;;;10.80;99.90;;;;;;5065582;28;20068;-47
2021/12/30 06:41:39;;;;;;;106.60;25.17;;;10.10;99.90;;;;;;5065309;28;20036;-47
2021/12/30 06:44:05;;;;;;;93.15;24.25;;;10.20;99.90;;;;;;5068838;28;20738;-45
2021/12/30 06:46:31;;;;;;;99.43;24.23;;;10.30;99.90;;;;;;5073713;28;20036;-44
2021/12/30 06:48:56;;;;;;;74.55;20.65;;;10.30;99.90;;;;;;5073917;28;20036;-45
2021/12/30 06:51:24;;;;;;;97.82;23.63;;;10.50;99.90;;;;;;5073317;28;20450;-50
2021/12/30 06:53:54;;;;;;;95.82;21.30;;;10.40;99.90;;;;;;5079378;28;20040;-45
2021/12/30 06:56:21;;;;;;;83.45;21.15;;;10.40;99.90;;;;;;5076363;28;20044;-45
2021/12/30 06:58:47;;;;;;;64.38;18.85;;;11.40;99.90;;;;;;5067117;28;20048;-46
2021/12/30 07:01:13;;;;;;;67.90;18.05;;;10.20;99.90;;;;;;5063707;28;21263;-48
2021/12/30 07:03:38;;;;;;;55.10;16.75;;;11.70;99.90;;;;;;5076813;28;20562;-48
2021/12/30 07:06:04;;;;;;;47.65;15.50;;;10.40;99.90;;;;;;5064553;28;20036;-47
2021/12/30 07:08:30;;;;;;;50.92;14.75;;;10.40;99.90;;;;;;5073463;28;20036;-48
2021/12/30 07:10:55;;;;;;;51.67;15.02;;;10.50;99.90;;;;;;5071961;28;20043;-51
2021/12/30 07:13:21;;;;;;;45.55;14.63;;;11.60;99.90;;;;;;5072152;28;20154;-45
2021/12/30 07:15:47;;;;;;;38.00;13.43;;;10.90;99.90;;;;;;5082063;28;20095;-51
2021/12/30 07:18:13;;;;;;;37.60;13.63;;;10.40;99.90;;;;;;5073581;28;20039;-46
2021/12/30 07:20:38;;;;;;;36.53;13.07;;;10.30;99.90;;;;;;5073227;28;20040;-48
2021/12/30 07:23:06;;;;;;;37.22;13.25;;;10.50;99.90;;;;;;5079973;28;20666;-49
2021/12/30 07:25:32;;;;;;;31.48;13.10;;;11.40;99.90;;;;;;5063482;28;20056;-47
2021/12/30 07:27:58;;;;;;;34.58;13.75;;;10.60;99.90;;;;;;5074515;28;20457;-46
2021/12/30 07:30:25;;;;;;;27.02;11.88;;;10.60;99.90;;;;;;5081606;28;20048;-45
2021/12/30 07:32:52;;;;;;;28.52;12.23;;;11.50;99.90;;;;;;5078121;28;20462;-46
2021/12/30 07:35:18;;;;;;;26.17;11.98;;;10.70;99.90;;;;;;5065046;28;20082;-45
2021/12/30 07:37:47;;;;;;;31.77;12.90;;;12.10;99.90;;;;;;5065500;28;20036;-46
2021/12/30 07:40:13;;;;;;;28.75;12.63;;;10.50;99.90;;;;;;5073950;28;20052;-46
2021/12/30 07:42:40;;;;;;;24.48;11.40;;;10.60;99.90;;;;;;5063329;28;20036;-46
2021/12/30 07:45:06;;;;;;;25.02;11.98;;;11.00;99.90;;;;;;5071136;28;20512;-46
2021/12/30 07:47:32;;;;;;;23.50;12.50;;;10.70;99.90;;;;;;5074475;28;20040;-51
2021/12/30 07:49:58;;;;;;;23.83;12.68;;;10.60;99.90;;;;;;5068446;28;20071;-45
2021/12/30 07:52:24;;;;;;;22.85;12.50;;;11.50;99.90;;;;;;5084116;28;20135;-46
2021/12/30 07:54:49;;;;;;;20.17;11.93;;;10.80;99.90;;;;;;5074156;28;20123;-50
2021/12/30 07:57:22;;;;;;;19.67;10.90;;;10.60;99.90;;;;;;5075488;28;20412;-45
2021/12/30 07:59:52;;;;;;;18.55;9.88;;;11.40;99.90;;;;;;5063044;28;20086;-45
2021/12/30 08:02:19;;;;;;;17.23;10.27;;;10.80;99.90;;;;;;5073146;28;20044;-45
2021/12/30 08:04:45;;;;;;;18.90;10.50;;;10.50;99.90;;;;;;5065637;28;20039;-51
2021/12/30 08:07:11;;;;;;;19.75;10.48;;;10.90;99.90;;;;;;5066416;28;20040;-46
2021/12/30 08:09:37;;;;;;;17.77;10.40;;;12.20;99.90;;;;;;5083184;28;20040;-46
2021/12/30 08:12:03;;;;;;;15.10;10.38;;;11.70;99.90;;;;;;5068474;28;20036;-47
2021/12/30 08:14:29;;;;;;;15.35;10.18;;;10.80;99.90;;;;;;5066519;28;20063;-44
2021/12/30 08:16:55;;;;;;;15.82;10.43;;;13.00;99.90;;;;;;5077116;28;20036;-45
2021/12/30 08:19:21;;;;;;;14.75;9.48;;;12.70;99.90;;;;;;5062006;28;20047;-44
2021/12/30 08:21:47;;;;;;;16.45;9.70;;;10.60;99.90;;;;;;5067674;28;20047;-47
2021/12/30 08:24:13;;;;;;;17.88;9.57;;;10.80;99.90;;;;;;5082193;28;20036;-46
2021/12/30 08:26:40;;;;;;;18.45;11.00;;;11.20;99.90;;;;;;5082219;28;20671;-45
2021/12/30 08:29:06;;;;;;;21.50;10.80;;;10.80;99.90;;;;;;5069343;28;20119;-46
2021/12/30 08:31:37;;;;;;;21.83;12.32;;;10.70;99.90;;;;;;5076018;28;20674;-46
2021/12/30 08:34:05;;;;;;;21.92;11.55;;;12.20;99.90;;;;;;5064674;28;20454;-48
2021/12/30 08:36:31;;;;;;;28.42;12.98;;;11.20;99.90;;;;;;5063613;28;20133;-46
2021/12/30 08:38:59;;;;;;;24.80;11.90;;;10.80;99.90;;;;;;5063381;28;20045;-47
2021/12/30 08:41:26;;;;;;;22.73;11.45;;;10.90;99.90;;;;;;5068305;28;20039;-45
2021/12/30 08:43:52;;;;;;;21.75;11.90;;;11.60;99.90;;;;;;5082907;28;20500;-45
2021/12/30 08:46:19;;;;;;;19.63;9.70;;;10.90;99.90;;;;;;5079448;28;20101;-47
2021/12/30 08:48:45;;;;;;;19.90;9.65;;;11.00;99.90;;;;;;5070822;28;20040;-45
2021/12/30 08:51:11;;;;;;;19.20;9.00;;;10.80;99.90;;;;;;5081575;28;20040;-50
2021/12/30 08:53:40;;;;;;;24.15;9.98;;;11.70;99.90;;;;;;5075788;28;20036;-46
2021/12/30 08:56:06;;;;;;;21.35;8.23;;;11.00;99.90;;;;;;5067866;28;20037;-46
2021/12/30 08:58:32;;;;;;;22.48;8.45;;;11.00;99.90;;;;;;5078000;28;20179;-45
2021/12/30 09:00:59;;;;;;;18.20;8.18;;;11.00;99.90;;;;;;5065242;28;20148;-47
2021/12/30 09:03:25;;;;;;;20.50;8.05;;;10.70;99.90;;;;;;5062937;28;20382;-45
2021/12/30 09:05:51;;;;;;;22.27;8.32;;;11.80;99.90;;;;;;5074222;28;20066;-48
2021/12/30 09:08:16;;;;;;;21.23;8.68;;;11.60;99.90;;;;;;5077329;28;20036;-45
2021/12/30 09:10:45;;;;;;;23.55;8.15;;;12.90;99.90;;;;;;5062499;28;20040;-48
2021/12/30 09:13:14;;;;;;;28.08;8.68;;;10.90;99.90;;;;;;5062824;28;20091;-44
2021/12/30 09:15:39;;;;;;;19.88;8.10;;;12.30;99.90;;;;;;5075696;28;20143;-46
2021/12/30 09:18:06;;;;;;;23.77;8.63;;;11.60;99.90;;;;;;5064935;28;20162;-46
2021/12/30 09:20:33;;;;;;;22.35;6.80;;;11.40;99.90;;;;;;5070299;28;20121;-47
2021/12/30 09:23:03;;;;;;;24.75;7.72;;;10.90;99.90;;;;;;5059591;28;20103;-47
2021/12/30 09:25:30;;;;;;;18.73;7.00;;;11.00;99.90;;;;;;5061325;28;20075;-45
2021/12/30 09:27:56;;;;;;;23.65;6.22;;;11.70;99.90;;;;;;5070681;28;20539;-45
2021/12/30 09:30:24;;;;;;;22.90;6.40;;;11.70;99.90;;;;;;5076267;28;20497;-45
2021/12/30 09:32:54;;;;;;;25.42;7.00;;;11.20;99.90;;;;;;5070681;28;20047;-44
2021/12/30 09:35:20;;;;;;;25.48;6.60;;;11.20;99.90;;;;;;5078826;28;20869;-46
2021/12/30 09:37:46;;;;;;;31.83;7.50;;;10.90;99.90;;;;;;5080516;28;20040;-47
2021/12/30 09:40:14;;;;;;;21.13;6.95;;;11.90;99.90;;;;;;5061475;28;20048;-46
2021/12/30 09:42:46;;;;;;;25.60;6.95;;;10.90;99.90;;;;;;5072795;28;20082;-47
2021/12/30 09:45:14;;;;;;;25.95;8.00;;;11.00;99.90;;;;;;5075920;28;20037;-46
2021/12/30 09:47:47;;;;;;;24.45;7.93;;;10.80;99.90;;;;;;5081489;28;20119;-46
2021/12/30 09:50:12;;;;;;;36.38;8.38;;;11.00;99.90;;;;;;5079994;28;20036;-46
2021/12/30 09:52:38;;;;;;;28.20;8.68;;;11.10;99.90;;;;;;5070347;28;20063;-46
2021/12/30 09:55:05;;;;;;;27.30;7.65;;;11.20;99.90;;;;;;5060651;28;20037;-47
2021/12/30 09:57:30;;;;;;;25.45;7.30;;;10.90;99.90;;;;;;5059766;28;20790;-46
2021/12/30 09:59:56;;;;;;;25.48;8.63;;;10.90;99.90;;;;;;5068331;28;20150;-46
2021/12/30 10:02:22;;;;;;;30.10;7.95;;;11.10;99.90;;;;;;5093199;28;20444;-47
2021/12/30 10:05:03;;;;;;;27.67;6.40;;;12.30;99.90;;;;;;5073495;28;20093;-47
2021/12/30 10:07:29;;;;;;;30.23;7.60;;;11.20;99.90;;;;;;5061183;28;20063;-49
2021/12/30 10:10:00;;;;;;;27.45;7.47;;;11.10;99.90;;;;;;5076246;28;20496;-47
2021/12/30 10:12:52;;;;;;;33.50;7.10;;;11.10;99.90;;;;;;5077338;28;21302;-46
2021/12/30 10:15:20;;;;;;;24.30;5.75;;;13.20;99.90;;;;;;5073604;28;20041;-48
2021/12/30 10:17:54;;;;;;;27.45;7.97;;;11.30;99.90;;;;;;5058868;28;20037;-47
2021/12/30 10:20:28;;;;;;;29.50;6.15;;;13.20;99.90;;;;;;5060921;28;20068;-46
2021/12/30 10:22:57;;;;;;;27.52;6.88;;;11.20;99.90;;;;;;5060028;28;20040;-48
2021/12/30 10:25:31;;;;;;;26.52;6.65;;;11.10;99.90;;;;;;5061118;28;20045;-48
2021/12/30 10:28:23;;;;;;;29.65;7.05;;;11.30;99.90;;;;;;5079457;28;20047;-47
2021/12/30 10:30:51;;;;;;;31.48;7.30;;;11.10;99.90;;;;;;5075991;28;20071;-52
2021/12/30 10:33:21;;;;;;;33.67;7.13;;;11.00;99.90;;;;;;5084013;28;20071;-47
2021/12/30 10:35:49;;;;;;;23.42;6.65;;;13.20;99.90;;;;;;5064424;28;20044;-48
2021/12/30 10:38:15;;;;;;;30.27;8.13;;;11.30;99.90;;;;;;5063539;28;20516;-48
2021/12/30 10:40:46;;;;;;;35.20;8.88;;;11.10;99.90;;;;;;5064259;28;20047;-47
2021/12/30 10:43:30;;;;;;;28.63;6.50;;;11.00;99.90;;;;;;5072887;28;20089;-52
2021/12/30 10:46:07;;;;;;;44.25;8.27;;;11.10;99.90;;;;;;5081035;28;20064;-47
2021/12/30 10:48:45;;;;;;;33.30;6.45;;;11.10;99.90;;;;;;5067307;28;21440;-46
2021/12/30 10:51:23;;;;;;;32.45;7.65;;;11.30;99.90;;;;;;5074900;28;20044;-47
2021/12/30 10:53:50;;;;;;;38.70;7.50;;;11.20;99.90;;;;;;5085098;28;20439;-51
2021/12/30 10:56:23;;;;;;;36.33;7.45;;;12.50;99.90;;;;;;5069589;28;20033;-50
2021/12/30 10:58:52;;;;;;;42.10;8.10;;;11.10;99.90;;;;;;5078807;28;20052;-51
2021/12/30 11:01:19;;;;;;;41.63;8.65;;;11.20;99.90;;;;;;5076970;28;20568;-51
2021/12/30 11:03:57;;;;;;;39.75;7.47;;;11.20;99.90;;;;;;5083203;28;20545;-50
2021/12/30 11:06:24;;;;;;;42.78;7.78;;;12.80;99.90;;;;;;5072511;28;20040;-48
2021/12/30 11:09:07;;;;;;;43.28;10.02;;;11.30;99.90;;;;;;5070469;28;20051;-48
2021/12/30 11:11:33;;;;;;;40.25;9.48;;;11.30;99.90;;;;;;5074192;28;20742;-47
2021/12/30 11:14:12;;;;;;;33.17;7.40;;;11.20;99.90;;;;;;5077279;28;20049;-48
2021/12/30 11:17:06;;;;;;;38.50;8.48;;;11.20;99.90;;;;;;5082929;28;20028;-49
2021/12/30 11:19:44;;;;;;;44.88;8.63;;;11.40;99.90;;;;;;5083875;28;20040;-48
2021/12/30 11:22:13;;;;;;;45.60;8.40;;;11.30;99.90;;;;;;5081934;28;20077;-49
2021/12/30 11:24:40;;;;;;;50.38;10.90;;;11.40;99.90;;;;;;5070181;28;20072;-49
2021/12/30 11:27:10;;;;;;;59.20;10.55;;;12.30;99.90;;;;;;5084178;28;20230;-47
2021/12/30 11:29:39;;;;;;;39.53;8.88;;;11.30;99.90;;;;;;5073074;28;20044;-48
2021/12/30 11:32:07;;;;;;;46.50;8.10;;;12.90;99.90;;;;;;5063697;28;20040;-53
2021/12/30 11:34:33;;;;;;;46.13;9.18;;;11.20;99.90;;;;;;5064122;28;20032;-48
2021/12/30 11:37:02;;;;;;;47.70;9.70;;;11.70;99.90;;;;;;5074501;28;20048;-47
2021/12/30 11:39:28;;;;;;;45.35;9.70;;;11.20;99.90;;;;;;5072094;28;20098;-49
2021/12/30 11:42:02;;;;;;;48.35;9.98;;;12.80;99.90;;;;;;5083511;28;20055;-53
2021/12/30 11:44:45;;;;;;;46.47;9.32;;;11.30;99.90;;;;;;5075897;28;20033;-49
2021/12/30 11:47:33;;;;;;;41.10;9.00;;;11.00;99.90;;;;;;5071125;28;20063;-48
2021/12/30 11:50:30;;;;;;;46.60;7.95;;;11.20;99.90;;;;;;5078661;28;20060;-50
2021/12/30 11:53:03;;;;;;;50.53;8.07;;;12.60;99.90;;;;;;5069646;28;20044;-51
2021/12/30 11:56:02;;;;;;;40.42;8.95;;;11.30;99.90;;;;;;5078227;28;20037;-50
2021/12/30 11:58:32;;;;;;;55.33;9.20;;;11.30;99.90;;;;;;5017934;28;20056;-51
2021/12/30 12:01:12;;;;;;;47.45;8.50;;;11.40;99.90;;;;;;5009230;28;20722;-48
2021/12/30 12:03:55;;;;;;;46.28;9.43;;;11.40;99.90;;;;;;5014752;28;20053;-52
2021/12/30 12:06:34;;;;;;;51.97;8.57;;;11.40;99.90;;;;;;5020201;28;20045;-50
2021/12/30 12:09:05;;;;;;;39.30;7.68;;;11.40;99.90;;;;;;5007587;28;20355;-49
2021/12/30 12:11:54;;;;;;;37.47;8.02;;;11.30;99.90;;;;;;5014204;28;20354;-49
2021/12/30 12:14:29;;;;;;;50.28;9.90;;;11.40;99.90;;;;;;5003589;28;20056;-50
2021/12/30 12:16:59;;;;;;;43.70;8.70;;;11.30;99.90;;;;;;5005522;28;20065;-50
2021/12/30 12:19:42;;;;;;;42.75;8.07;;;12.30;99.90;;;;;;5000337;28;20531;-50
2021/12/30 12:22:26;;;;;;;46.05;8.45;;;11.40;99.90;;;;;;5018846;28;20069;-47
2021/12/30 12:25:09;;;;;;;41.83;6.88;;;13.40;99.90;;;;;;5010874;28;20048;-50
2021/12/30 12:27:47;;;;;;;43.05;7.57;;;11.50;99.90;;;;;;5008575;28;20049;-48
2021/12/30 12:30:50;;;;;;;44.65;7.90;;;11.30;99.90;;;;;;5000104;28;20077;-49
2021/12/30 12:33:25;;;;;;;42.97;7.78;;;12.50;99.90;;;;;;4913795;29;20048;-51
2021/12/30 12:35:50;;;;;;;42.50;7.20;;;12.30;99.90;;;;;;4989257;28;20060;-48
2021/12/30 12:38:55;;;;;;;39.97;8.20;;;11.50;99.90;;;;;;4985715;28;20145;-46
2021/12/30 12:41:27;;;;;;;50.25;8.23;;;11.40;99.90;;;;;;4979360;28;20101;-49
2021/12/30 12:44:03;;;;;;;48.10;7.57;;;11.60;99.90;;;;;;4999346;28;20045;-52
2021/12/30 12:46:50;;;;;;;36.58;6.55;;;11.50;99.90;;;;;;4989068;28;20453;-48
2021/12/30 12:49:38;;;;;;;43.92;8.13;;;11.50;99.90;;;;;;4990673;28;20130;-51